Portada
METAR-TAF:

METAR-TAF

Aeroports :

Bhubaneswar, Índia

latitud: 20-14-40N, longitud: 85-49-04E, altitud: 45 m

Observació

L'informe es va fer fa 20 minuts, a les 14:00 UTC
Vent calma
Temperatura 30°C
Humitat 75%
Pressió 1009 hPa
Visibilitat: 4000 m
Escasses núvols a una alçada de 10000 ft
calitja

METAR: VEBS 311400Z 00000KT 4000 HZ FEW100 30/25 Q1009 NOSIG

Hora: 19:50 (14:20 UTC)

Pronòstic

L'informe es va fer fa 3 hores i 20 minuts, a les 11:00 UTC
Pronòstic vàlid del 31 a les 12 UTC al 31 a les 21 UTC
Vent 3 kt del Sud-Est
Visibilitat: 5000 m
Escasses núvols a una alçada de 2000 ft
calitja
Evolucionant progressivament
l' 31 a les 16 UTC al 31 a les 18 UTC
Vent 4 kt del Sud
Visibilitat: 3500 m
boirina

TAF: VEBS 311100Z 3112/3121 13003KT 5000 HZ FEW020 BECMG 3116/3118 18004KT 3500 BR

Observacions i pronòstics meteorològics de més de 4000 aeroports (METAR i TAF).

Les estacions disponibles són els punts grocs i vermells al mapa.

Posi el ratolí al punt desitjat per veure el nom de l'estació.

Feu clic per veure les observacions i els pronòstics meteorològics.

Per canviar el mapa: feu clic els botons verds amb una creu de color negre per apropar; al botó verd amb un guió per allunyar la imatge; o en les fletxes verdes per a mapes adjacents.


METAR-TAF: